createdAt,value
2023-01-22T00:03:07.640Z,9.40
2023-01-22T00:08:09.708Z,3.83
2023-01-22T00:13:11.619Z,2.63
2023-01-22T00:18:15.546Z,3.73
2023-01-22T00:23:17.748Z,3.27
2023-01-22T00:28:19.792Z,3.20
2023-01-22T00:33:23.080Z,2.90
2023-01-22T00:38:25.147Z,4.83
2023-01-22T00:43:27.455Z,3.67
2023-01-22T00:48:31.058Z,3.33
2023-01-22T00:53:33.176Z,2.90
2023-01-22T00:58:35.524Z,2.50
2023-01-22T01:03:38.904Z,3.20
2023-01-22T01:08:43.163Z,5.00
2023-01-22T01:13:45.547Z,2.80
2023-01-22T01:18:49.271Z,3.03
2023-01-22T01:23:51.020Z,3.13
2023-01-22T01:28:52.965Z,4.60
2023-01-22T01:33:56.555Z,3.53
2023-01-22T01:38:58.637Z,4.93
2023-01-22T01:44:09.216Z,4.70
2023-01-22T01:49:18.793Z,3.63
2023-01-22T01:54:21.163Z,4.23
2023-01-22T01:59:24.081Z,3.87
2023-01-22T02:04:28.432Z,5.93
2023-01-22T02:09:31.021Z,5.87
2023-01-22T02:14:35.038Z,5.83
2023-01-22T02:19:38.471Z,4.00
2023-01-22T02:24:42.013Z,3.50
2023-01-22T02:29:44.171Z,4.70
2023-01-22T02:34:46.262Z,6.53
2023-01-22T02:39:49.331Z,4.73
2023-01-22T02:44:51.702Z,4.07
2023-01-22T02:49:53.956Z,4.00
2023-01-22T02:54:57.260Z,2.97
2023-01-22T02:59:59.554Z,3.67
2023-01-22T03:05:01.631Z,4.40
2023-01-22T03:10:05.860Z,3.53
2023-01-22T03:15:09.265Z,3.43
2023-01-22T03:20:11.905Z,4.83
2023-01-22T03:25:15.417Z,3.87
2023-01-22T03:30:18.448Z,3.60
2023-01-22T03:35:20.591Z,4.10
2023-01-22T03:40:24.212Z,5.00
2023-01-22T03:45:27.858Z,7.57
2023-01-22T03:50:30.494Z,4.70
2023-01-22T03:55:33.989Z,4.43
2023-01-22T04:00:36.051Z,4.07
2023-01-22T04:05:37.742Z,4.13
2023-01-22T04:10:42.440Z,4.50
2023-01-22T04:15:44.846Z,3.53
2023-01-22T04:20:48.535Z,2.17
2023-01-22T04:25:52.719Z,4.03
2023-01-22T04:30:55.659Z,2.17
2023-01-22T04:35:57.812Z,3.70
2023-01-22T04:41:01.426Z,4.23
2023-01-22T04:46:05.623Z,3.27
2023-01-22T04:51:07.713Z,4.23
2023-01-22T04:56:11.393Z,3.50
2023-01-22T05:01:13.492Z,4.63
2023-01-22T05:06:15.193Z,4.40
2023-01-22T05:11:18.803Z,4.33
2023-01-22T05:16:21.110Z,4.10
2023-01-22T05:21:23.432Z,3.80
2023-01-22T05:26:26.885Z,3.73
2023-01-22T05:31:29.017Z,4.30
2023-01-22T05:36:31.221Z,3.83
2023-01-22T05:41:34.890Z,4.07
2023-01-22T05:46:37.046Z,4.57
2023-01-22T05:51:39.112Z,5.63
2023-01-22T05:56:42.793Z,4.07
2023-01-22T06:01:44.959Z,4.63
2023-01-22T06:06:47.029Z,5.57
2023-01-22T06:11:50.328Z,4.73
2023-01-22T06:16:52.489Z,4.97
2023-01-22T06:21:55.042Z,6.73
2023-01-22T06:26:58.529Z,5.23
2023-01-22T06:32:00.715Z,4.77
2023-01-22T06:37:02.801Z,4.63
2023-01-22T06:42:06.505Z,7.60
2023-01-22T06:47:08.820Z,5.07
2023-01-22T06:52:11.083Z,5.13
2023-01-22T06:57:14.556Z,6.70
2023-01-22T07:02:17.732Z,5.70
2023-01-22T07:07:19.996Z,6.00
2023-01-22T07:12:23.425Z,6.17
2023-01-22T07:17:25.543Z,5.77
2023-01-22T07:22:27.398Z,5.20
2023-01-22T07:27:30.539Z,5.07
2023-01-22T07:32:32.358Z,5.57
2023-01-22T07:37:34.557Z,5.40
2023-01-22T07:42:38.873Z,5.80
2023-01-22T07:47:42.340Z,5.40
2023-01-22T07:52:45.481Z,6.23
2023-01-22T07:57:49.092Z,6.80
2023-01-22T08:02:51.422Z,6.63
2023-01-22T08:07:53.622Z,6.80
2023-01-22T08:12:57.191Z,8.63
2023-01-22T08:17:59.458Z,8.60
2023-01-22T08:23:01.691Z,7.00
2023-01-22T08:28:06.324Z,6.50
2023-01-22T08:33:08.542Z,7.13
2023-01-22T08:38:10.309Z,5.40
2023-01-22T08:43:14.072Z,7.27
2023-01-22T08:48:16.703Z,6.73
2023-01-22T08:53:18.879Z,8.10
2023-01-22T08:58:22.380Z,4.53
2023-01-22T09:03:24.864Z,5.30
2023-01-22T09:08:26.765Z,5.23
2023-01-22T09:13:30.437Z,3.90
2023-01-22T09:18:32.230Z,4.80
2023-01-22T09:23:34.187Z,6.20
2023-01-22T09:28:37.528Z,4.87
2023-01-22T09:33:39.638Z,6.03
2023-01-22T09:38:42.239Z,7.27
2023-01-22T09:43:51.191Z,6.20
2023-01-22T09:48:57.281Z,5.37
2023-01-22T09:54:03.526Z,4.30
2023-01-22T09:59:13.763Z,5.67
2023-01-22T10:04:27.072Z,7.37
2023-01-22T10:09:31.306Z,5.60
2023-01-22T10:14:34.396Z,6.27
2023-01-22T10:19:42.746Z,6.43
2023-01-22T10:24:45.098Z,6.87
2023-01-22T10:29:58.038Z,6.97
2023-01-22T10:35:02.463Z,8.30
2023-01-22T10:40:05.600Z,8.30
2023-01-22T10:45:19.236Z,7.90
2023-01-22T10:50:22.136Z,10.40
2023-01-22T10:55:27.394Z,9.57
2023-01-22T11:00:46.718Z,8.47
2023-01-22T11:05:58.211Z,9.47
2023-01-22T11:11:04.450Z,10.40
2023-01-22T11:16:13.048Z,6.80
2023-01-22T11:21:16.810Z,6.60
2023-01-22T11:26:29.815Z,7.73
2023-01-22T11:31:53.091Z,7.20
2023-01-22T11:37:00.418Z,5.07
2023-01-22T11:42:13.706Z,8.57
2023-01-22T11:47:48.709Z,6.90
2023-01-22T11:52:59.756Z,7.10
2023-01-22T11:58:09.424Z,7.23
2023-01-22T12:03:47.306Z,6.93
2023-01-22T12:08:57.727Z,5.47
2023-01-22T12:14:35.383Z,6.27
2023-01-22T12:20:01.773Z,8.93
2023-01-22T12:25:14.060Z,8.23
2023-01-22T12:30:22.458Z,5.90
2023-01-22T12:35:29.322Z,6.07
2023-01-22T12:40:59.497Z,7.73
2023-01-22T12:46:10.225Z,7.63
2023-01-22T12:51:26.326Z,7.47
2023-01-22T12:56:30.848Z,6.17
2023-01-22T13:01:34.985Z,6.90
2023-01-22T13:06:40.260Z,7.30
2023-01-22T13:11:42.011Z,7.80
2023-01-22T13:16:52.268Z,7.73
2023-01-22T13:21:59.127Z,6.13
2023-01-22T13:27:03.470Z,7.60
2023-01-22T13:32:15.958Z,12.10
2023-01-22T13:37:22.858Z,7.80
2023-01-22T13:42:26.375Z,9.43
2023-01-22T13:47:31.951Z,9.57
2023-01-22T13:52:35.496Z,8.33
2023-01-22T13:57:44.827Z,9.63
2023-01-22T14:02:47.178Z,9.47
2023-01-22T14:07:51.945Z,10.63
2023-01-22T14:13:00.134Z,9.13
2023-01-22T14:18:09.715Z,8.37
2023-01-22T14:23:13.440Z,11.43
2023-01-22T14:28:16.122Z,10.37
2023-01-22T14:33:24.005Z,11.50
2023-01-22T14:38:28.463Z,9.27
2023-01-22T14:43:30.287Z,8.13
2023-01-22T14:48:32.462Z,10.93
2023-01-22T14:53:35.990Z,8.70
2023-01-22T14:58:38.329Z,10.03
2023-01-22T15:03:40.044Z,12.10
2023-01-22T15:08:43.780Z,10.07
2023-01-22T15:13:45.448Z,11.80
2023-01-22T15:18:47.505Z,12.70
2023-01-22T15:23:51.471Z,10.87
2023-01-22T15:28:54.937Z,13.47
2023-01-22T15:33:57.134Z,11.83
2023-01-22T15:39:00.674Z,12.13
2023-01-22T15:44:04.966Z,12.00
2023-01-22T15:49:08.375Z,12.93
2023-01-22T15:54:15.331Z,15.00
2023-01-22T15:59:17.867Z,14.23
2023-01-22T16:04:19.603Z,11.07
2023-01-22T16:09:22.726Z,15.70
2023-01-22T16:14:24.792Z,20.83
2023-01-22T16:19:26.741Z,13.10
2023-01-22T16:24:30.114Z,15.53
2023-01-22T16:29:32.155Z,11.50
2023-01-22T16:34:34.347Z,17.83
2023-01-22T16:39:37.671Z,15.00
2023-01-22T16:44:39.504Z,20.33
2023-01-22T16:49:41.245Z,19.90
2023-01-22T16:54:44.669Z,15.23
2023-01-22T16:59:48.395Z,14.67
2023-01-22T17:04:50.347Z,14.73
2023-01-22T17:09:53.998Z,19.67
2023-01-22T17:14:56.269Z,38.43
2023-01-22T17:20:00.285Z,15.60
2023-01-22T17:25:05.447Z,14.73
2023-01-22T17:30:08.593Z,17.10
2023-01-22T17:35:10.776Z,14.30
2023-01-22T17:40:14.233Z,13.83
2023-01-22T17:45:15.989Z,16.20
2023-01-22T17:50:18.024Z,17.70
2023-01-22T17:55:21.680Z,15.30
2023-01-22T18:00:24.486Z,15.30
2023-01-22T18:05:26.494Z,14.27
2023-01-22T18:10:30.332Z,16.73
2023-01-22T18:15:32.584Z,16.23
2023-01-22T18:20:34.383Z,15.70
2023-01-22T18:25:42.487Z,14.93
2023-01-22T18:30:46.705Z,14.67
2023-01-22T18:35:51.036Z,19.70
2023-01-22T18:40:55.039Z,17.27
2023-01-22T18:46:02.935Z,14.70
2023-01-22T18:51:06.394Z,16.47
2023-01-22T18:56:11.655Z,16.27
2023-01-22T19:01:16.195Z,14.63
2023-01-22T19:06:20.811Z,11.77
2023-01-22T19:11:24.715Z,11.93
2023-01-22T19:16:28.323Z,14.83
2023-01-22T19:21:30.852Z,13.70
2023-01-22T19:26:35.767Z,11.87
2023-01-22T19:31:39.281Z,12.83
2023-01-22T19:36:41.673Z,13.47
2023-01-22T19:41:44.944Z,10.73
2023-01-22T19:46:47.512Z,11.47
2023-01-22T19:51:50.279Z,11.23
2023-01-22T19:56:54.621Z,13.20
2023-01-22T20:01:57.556Z,11.87
2023-01-22T20:07:02.165Z,12.17
2023-01-22T20:12:06.895Z,11.67
2023-01-22T20:17:09.344Z,12.73
2023-01-22T20:22:11.940Z,12.73
2023-01-22T20:27:16.272Z,11.30
2023-01-22T20:32:18.582Z,12.33
2023-01-22T20:37:20.601Z,11.77
2023-01-22T20:42:24.570Z,12.67
2023-01-22T20:47:27.156Z,12.33
2023-01-22T20:52:29.143Z,10.30
2023-01-22T20:57:32.945Z,10.93
2023-01-22T21:02:35.272Z,42.70
2023-01-22T21:07:37.204Z,11.33
2023-01-22T21:12:42.095Z,11.97
2023-01-22T21:17:44.296Z,12.97
2023-01-22T21:22:46.810Z,12.77
2023-01-22T21:27:51.233Z,13.70
2023-01-22T21:32:53.309Z,12.40
2023-01-22T21:37:55.676Z,14.23
2023-01-22T21:42:59.273Z,19.40
2023-01-22T21:48:01.959Z,12.90
2023-01-22T21:53:04.428Z,14.03
2023-01-22T21:58:09.048Z,14.97
2023-01-22T22:03:11.461Z,13.70
2023-01-22T22:08:13.169Z,15.00
2023-01-22T22:13:16.670Z,13.13
2023-01-22T22:18:18.604Z,14.73
2023-01-22T22:23:20.900Z,15.90
2023-01-22T22:28:24.681Z,14.47
2023-01-22T22:33:26.747Z,15.90
2023-01-22T22:38:28.963Z,14.60
2023-01-22T22:43:37.704Z,12.10
2023-01-22T22:48:39.941Z,11.97
2023-01-22T22:53:41.773Z,14.63
2023-01-22T22:58:45.552Z,14.07
2023-01-22T23:03:48.094Z,14.93
2023-01-22T23:08:52.941Z,21.77
2023-01-22T23:13:57.222Z,15.67
2023-01-22T23:19:01.018Z,13.77
2023-01-22T23:24:03.350Z,14.27
2023-01-22T23:29:10.627Z,14.13
2023-01-22T23:34:16.730Z,12.20
2023-01-22T23:39:20.683Z,15.60
2023-01-22T23:44:24.357Z,16.57
2023-01-22T23:49:26.441Z,15.37
2023-01-22T23:54:28.578Z,15.23
2023-01-22T23:59:32.064Z,12.73
